Latest Weather Observations for Stenhouse Bay

IDS60801

Issued at 6:05 am CDT Monday 24 November 2014 (issued every 30 minutes, with the page automatically refreshed every 10 minutes)

About weather observations | Map of weather stations | Latest weather observations for SA | Other Formats
Station Details ID: 022049 Name: STENHOUSE BAY Lat: -35.28 Lon: 136.94 Height: 42.0 m
Data from the previous 72 hours. | See also: Recent months at Stenhouse Bay
Date/Time
CDT
Temp
°C
App
Temp
°C
Dew
Point
Rel
Hum
%
Delta-T
°C
Wind Press
QNH
hPa
Press
MSL
hPa
Rain
since 9 am
mm
Dir
 
Spd
km/h
Gust
km/h
Spd
kts
Gust
kts
24/06:00am 16.6 13.6 12.6 77 2.2 SSW 20 30 11 16 1010.8 1010.7 0.0
24/05:30am 16.6 13.8 12.6 77 2.2 SSW 19 26 10 14 1010.6 1010.5 0.0
24/05:00am 16.5 13.4 12.3 76 2.3 S 20 26 11 14 1010.1 1010.0 0.0
24/04:30am 16.6 12.3 12.2 75 2.4 S 26 30 14 16 1009.7 1009.6 0.0
24/04:00am 16.6 12.8 12.4 76 2.3 S 24 30 13 16 1009.5 1009.4 0.0
24/03:30am 16.5 13.6 12.8 79 2.1 S 20 26 11 14 1009.3 1009.2 0.0
24/03:00am 16.6 12.3 12.2 75 2.4 S 26 32 14 17 1009.2 1009.1 0.0
24/02:30am 16.7 12.4 12.0 74 2.6 S 26 33 14 18 1009.2 1009.1 0.0
24/02:00am 16.6 13.2 12.4 76 2.3 S 22 26 12 14 1009.5 1009.4 0.0
24/01:30am 16.6 12.8 12.4 76 2.3 S 24 30 13 16 1009.6 1009.5 0.0
24/01:00am 16.8 12.8 11.7 72 2.8 S 24 33 13 18 1009.8 1009.7 0.0
24/12:30am 16.9 12.6 12.0 73 2.7 S 26 33 14 18 1009.5 1009.4 0.0
24/12:00am 17.1 13.0 11.6 70 3.0 SSE 24 30 13 16 1009.6 1009.5 0.0
 
Date/Time
CDT
Temp
°C
App
Temp
°C
Dew
Point
Rel
Hum
%
Delta-T
°C
Wind Press
QNH
hPa
Press
MSL
hPa
Rain
since 9 am
mm
Dir
 
Spd
km/h
Gust
km/h
Spd
kts
Gust
kts
23/11:30pm 17.2 12.8 11.7 70 3.0 SSE 26 35 14 19 1010.1 1010.0 0.0
23/11:00pm 17.3 13.0 12.0 71 2.9 SSE 26 33 14 18 1009.9 1009.8 0.0
23/10:30pm 17.4 12.7 11.9 70 3.0 SSE 28 35 15 19 1010.0 1009.9 0.0
23/10:00pm 17.6 13.1 12.5 72 2.8 SSE 28 33 15 18 1009.9 1009.8 0.0
23/09:30pm 17.7 13.8 13.4 76 2.4 SSE 26 35 14 19 1009.5 1009.4 0.0
23/09:00pm 18.1 16.1 13.8 76 2.5 S 17 20 9 11 1009.8 1009.7 0.0
23/08:30pm 17.7 15.8 13.0 74 2.6 S 15 20 8 11 1010.0 1009.9 0.0
23/08:00pm 18.0 16.7 12.5 70 3.1 SSW 11 17 6 9 1010.0 1009.9 0.0
23/07:30pm 19.1 18.9 14.6 75 2.6 S 9 11 5 6 1009.9 1009.8 0.0
23/07:00pm 19.9 19.3 14.5 71 3.1 S 11 13 6 7 1009.7 1009.6 0.0
23/06:30pm 20.3 19.6 14.4 69 3.4 S 11 17 6 9 1009.4 1009.3 0.0
23/06:00pm 20.3 19.0 14.7 70 3.3 S 15 19 8 10 1009.4 1009.3 0.0
23/05:30pm 20.3 18.7 14.0 67 3.7 SSE 15 17 8 9 1009.8 1009.7 0.0
23/05:00pm 19.8 18.5 13.7 68 3.5 SSE 13 15 7 8 1010.2 1010.1 0.0
23/04:30pm 19.5 18.7 14.1 71 3.1 S 11 13 6 7 1010.3 1010.2 0.0
23/04:00pm 20.7 20.3 14.1 66 3.8 SSW 9 13 5 7 1010.8 1010.7 0.0
23/03:30pm 19.5 18.3 14.1 71 3.1 E 13 17 7 9 1011.2 1011.1 0.0
23/03:00pm 19.8 18.7 13.0 65 3.9 ENE 11 13 6 7 1011.8 1011.7 0.0
23/02:30pm 20.0 19.1 12.7 63 4.1 E 9 13 5 7 1011.9 1011.8 0.0
23/02:00pm 20.0 17.6 12.5 62 4.2 S 17 20 9 11 1011.4 1011.3 0.0
23/01:30pm 20.9 18.6 13.1 61 4.5 S 17 22 9 12 1011.6 1011.5 0.0
23/01:00pm 21.7 19.6 13.6 60 4.7 S 17 24 9 13 1011.9 1011.8 0.0
23/12:30pm 20.0 17.9 13.5 66 3.7 SSW 17 22 9 12 1012.7 1012.6 0.0
23/12:00pm 19.7 17.9 13.2 66 3.7 SSW 15 20 8 11 1013.3 1013.2 0.0
23/11:30am 20.0 18.1 13.0 64 4.0 SSW 15 20 8 11 1013.3 1013.2 0.0
23/11:00am 19.6 18.3 12.4 63 4.0 S 11 15 6 8 1013.0 1012.9 0.0
23/10:30am 18.7 17.6 12.0 65 3.7 SSE 9 13 5 7 1013.1 1013.0 0.0
23/10:00am 19.2 17.8 12.2 64 3.9 E 11 13 6 7 1012.6 1012.5 0.0
23/09:30am 18.9 17.8 11.9 64 3.9 E 9 11 5 6 1012.6 1012.5 0.0
23/09:00am 18.0 17.5 12.7 71 3.0 E 7 11 4 6 1012.6 1012.5 0.0
23/08:30am 17.4 17.4 12.5 73 2.7 ENE 4 7 2 4 1012.4 1012.3 0.0
23/08:00am 16.8 16.8 12.3 75 2.5 NE 4 6 2 3 1012.3 1012.2 0.0
23/07:30am 14.9 15.5 13.1 89 1.0 NNW 2 4 1 2 1012.2 1012.1 0.0
23/07:00am 12.7 12.4 11.6 93 0.6 NNW 4 7 2 4 1012.1 1012.0 0.0
23/06:30am 12.0 11.6 11.1 94 0.5 NNW 4 6 2 3 1012.1 1012.0 0.0
23/06:00am 12.2 11.9 11.4 95 0.4 NW 4 4 2 2 1011.9 1011.8 0.0
23/05:30am 11.7 11.2 10.6 93 0.6 N 4 7 2 4 1011.7 1011.6 0.0
23/05:00am 11.5 10.5 10.4 93 0.6 NNW 6 7 3 4 1011.7 1011.6 0.0
23/04:30am 13.0 13.2 11.7 92 0.7 NNW 2 4 1 2 1011.9 1011.8 0.0
23/04:00am 13.2 13.0 11.8 91 0.7 NW 4 4 2 2 1012.0 1011.9 0.0
23/03:30am 13.1 12.4 11.5 90 0.9 W 6 6 3 3 1012.0 1011.9 0.0
23/03:00am 13.1 12.2 11.3 89 1.0 W 7 7 4 4 1012.0 1011.9 0.0
23/02:30am 13.6 12.5 11.8 89 1.0 WSW 9 13 5 7 1011.9 1011.8 0.0
23/02:00am 13.4 12.5 11.3 87 1.1 W 7 7 4 4 1012.3 1012.2 0.0
23/01:30am 14.1 13.4 11.3 83 1.5 WSW 6 7 3 4 1012.4 1012.3 0.0
23/01:00am 14.7 14.8 11.5 81 1.7 S 2 6 1 3 1012.6 1012.5 0.0
23/12:30am 15.2 14.5 12.0 81 1.7 S 7 9 4 5 1012.9 1012.8 0.0
23/12:00am 15.3 14.8 12.1 81 1.7 S 6 9 3 5 1013.1 1013.0 0.0
 
Date/Time
CDT
Temp
°C
App
Temp
°C
Dew
Point
Rel
Hum
%
Delta-T
°C
Wind Press
QNH
hPa
Press
MSL
hPa
Rain
since 9 am
mm
Dir
 
Spd
km/h
Gust
km/h
Spd
kts
Gust
kts
22/11:30pm 15.6 14.5 12.0 79 2.0 S 9 11 5 6 1013.0 1012.9 0.0
22/11:00pm 16.0 13.3 11.8 76 2.3 S 17 22 9 12 1012.9 1012.8 0.0
22/10:30pm 16.1 14.6 13.0 82 1.7 SSW 13 17 7 9 1012.9 1012.8 0.0
22/10:00pm 16.3 13.9 12.7 79 2.0 SSW 17 24 9 13 1012.7 1012.6 0.0
22/09:30pm 16.3 14.0 13.0 81 1.8 SSW 17 26 9 14 1012.3 1012.2 0.0
22/09:00pm 16.3 13.6 12.8 80 1.9 SW 19 30 10 16 1011.9 1011.8 0.0
22/08:30pm 16.4 13.5 12.9 80 1.9 SW 20 30 11 16 1011.5 1011.4 0.0
22/08:00pm 16.7 13.9 13.2 80 2.0 SW 20 32 11 17 1010.9 1010.8 0.0
22/07:30pm 17.3 14.3 12.6 74 2.6 SW 20 32 11 17 1010.3 1010.2 0.0
22/07:00pm 18.0 15.2 13.3 74 2.7 SW 20 30 11 16 1009.8 1009.7 0.0
22/06:30pm 18.3 14.1 13.4 73 2.8 SW 28 37 15 20 1009.5 1009.4 0.0
22/06:00pm 19.0 16.4 13.8 72 3.0 SW 20 26 11 14 1009.1 1009.0 0.0
22/05:30pm 19.1 15.2 14.4 74 2.7 SW 28 35 15 19 1008.7 1008.6 0.0
22/05:00pm 19.1 14.4 14.4 74 2.7 SW 32 37 17 20 1008.5 1008.4 0.0
22/04:30pm 19.4 15.7 14.9 75 2.6 SW 28 37 15 20 1008.4 1008.3 0.0
22/04:00pm 19.6 15.5 14.8 74 2.8 SW 30 41 16 22 1008.2 1008.1 0.0
22/03:30pm 19.3 15.3 15.2 77 2.4 SW 30 37 16 20 1008.2 1008.1 0.0
22/03:00pm 21.2 17.7 14.6 66 3.9 SW 26 33 14 18 1008.0 1007.9 0.0
22/02:30pm 21.6 18.9 14.7 65 4.1 SW 22 30 12 16 1007.7 1007.6 0.0
22/02:00pm 22.3 19.7 14.9 63 4.4 SW 22 30 12 16 1008.0 1007.9 0.0
22/01:30pm 21.8 19.6 13.4 59 4.9 SW 17 24 9 13 1007.9 1007.8 0.0
22/01:00pm 21.3 19.2 13.7 62 4.4 SW 17 22 9 12 1007.5 1007.4 0.0
22/12:30pm 22.9 21.0 14.2 58 5.1 WSW 17 24 9 13 1007.5 1007.4 0.0
22/12:00pm 22.4 19.6 14.3 60 4.8 WSW 22 32 12 17 1007.1 1007.0 0.0
22/11:30am 24.5 22.3 13.4 50 6.5 W 17 26 9 14 1006.9 1006.8 0.0
22/11:00am 23.7 20.2 13.3 52 6.0 WNW 24 33 13 18 1007.2 1007.1 0.0
22/10:30am 26.0 23.5 14.1 47 7.1 NW 20 28 11 15 1006.8 1006.7 0.0
22/10:00am 24.4 21.5 13.9 52 6.2 NW 22 28 12 15 1006.7 1006.6 0.0
22/09:30am 24.6 22.7 14.1 52 6.2 NNW 17 22 9 12 1006.5 1006.4 0.0
22/09:00am 21.5 20.2 14.9 66 3.9 NNW 15 19 8 10 1006.6 1006.5 0.8
22/08:30am 20.8 19.7 16.4 76 2.7 N 17 22 9 12 1006.3 1006.2 0.8
22/08:00am 19.0 19.1 16.4 85 1.6 N 11 17 6 9 1005.9 1005.9 0.8
22/07:30am 17.7 17.5 15.7 88 1.2 N 11 13 6 7 1006.1 1006.1 0.8
22/07:00am 16.5 14.5 15.0 91 0.9 N 19 24 10 13 1006.6 1006.5 0.8
22/06:30am 17.7 18.7 14.4 81 1.9 ENE 2 4 1 2 1006.9 1006.8 0.2
22/06:00am 18.2 18.0 13.7 75 2.6 SSE 7 11 4 6 1006.1 1006.1 0.0
22/05:47am 18.4 18.0 14.1 76 2.5 SSE 9 15 5 8 1007.4 1007.3 0.0
22/05:30am 18.4 18.0 14.1 76 2.5 S 9 13 5 7 1005.3 1005.2 0.0
22/05:00am 18.3 17.8 12.7 70 3.1 SSE 7 9 4 5 1005.3 1005.2 0.0
22/04:30am 18.8 18.1 13.2 70 3.2 SSW 9 13 5 7 1005.6 1005.6 0.0
22/04:00am 18.3 16.8 14.2 77 2.4 S 15 19 8 10 1005.5 1005.4 0.0
22/03:30am 17.8 17.0 15.2 85 1.5 SSW 13 17 7 9 1005.7 1005.7 0.0
22/03:00am 18.1 17.0 14.4 79 2.1 S 13 19 7 10 1005.8 1005.8 0.0
22/02:30am 19.7 16.2 12.2 62 4.2 SW 22 30 12 16 1005.4 1005.3 0.0
22/02:00am 20.5 17.8 9.1 48 6.0 N 13 19 7 10 1004.9 1004.8 0.0
22/01:30am 19.2 16.1 8.8 51 5.5 N 15 19 8 10 1005.0 1004.9 0.0
22/01:00am 18.3 14.9 9.1 55 4.8 NNE 17 22 9 12 1004.9 1004.8 0.0
22/12:30am 17.8 14.5 9.4 58 4.4 NNE 17 20 9 11 1005.7 1005.7 0.0
22/12:00am 18.9 16.3 10.7 59 4.5 NE 15 19 8 10 1006.4 1006.3 0.0
 
Date/Time
CDT
Temp
°C
App
Temp
°C
Dew
Point
Rel
Hum
%
Delta-T
°C
Wind Press
QNH
hPa
Press
MSL
hPa
Rain
since 9 am
mm
Dir
 
Spd
km/h
Gust
km/h
Spd
kts
Gust
kts
21/11:30pm 18.7 16.2 12.2 66 3.6 NE 17 22 9 12 1006.8 1006.7 0.0
21/11:00pm 17.8 15.7 12.3 70 3.0 NE 15 17 8 9 1007.5 1007.4 0.0
21/10:30pm 18.1 16.0 12.3 69 3.2 NNE 15 20 8 11 1008.1 1008.0 0.0
21/10:00pm 17.9 16.7 14.0 78 2.2 NE 13 19 7 10 1008.5 1008.4 0.0
21/09:30pm 18.3 17.3 15.6 84 1.6 NE 15 20 8 11 1008.6 1008.5 0.0
21/09:00pm 18.0 17.5 16.0 88 1.2 ENE 13 17 7 9 1008.6 1008.5 0.0
21/08:30pm 17.9 16.5 15.5 86 1.4 E 17 24 9 13 1008.7 1008.6 0.0
21/08:00pm 17.8 15.9 15.1 84 1.6 ENE 19 22 10 12 1008.8 1008.7 0.0
21/07:30pm 17.9 15.8 14.8 82 1.8 E 19 24 10 13 1009.2 1009.1 0.0
21/07:00pm 17.9 15.4 14.0 78 2.2 E 20 26 11 14 1009.1 1009.0 0.0
21/06:30pm 18.9 17.2 13.7 72 3.0 E 15 22 8 12 1009.4 1009.3 0.0
21/06:00pm 19.4 17.8 13.8 70 3.2 E 15 19 8 10 1009.6 1009.5 0.0
21/05:30pm 19.6 17.5 13.5 68 3.5 E 17 19 9 10 1009.7 1009.6 0.0
21/05:00pm 20.2 18.6 13.9 67 3.6 E 15 19 8 10 1010.0 1009.9 0.0
21/04:30pm 20.5 19.0 14.2 67 3.7 E 15 19 8 10 1010.2 1010.1 0.0
21/04:00pm 21.1 18.9 14.5 66 3.9 E 19 22 10 12 1010.3 1010.2 0.0
21/03:30pm 23.8 20.0 3.7 27 9.8 NNW 13 20 7 11 1010.8 1010.7 0.0
21/03:00pm 21.6 18.3 8.1 42 7.1 NW 15 22 8 12 1011.0 1010.9 0.0
21/02:30pm 20.8 17.7 8.8 46 6.3 NW 15 20 8 11 1011.5 1011.4 0.0
21/02:00pm 21.2 18.1 10.4 50 5.9 NNW 17 24 9 13 1011.8 1011.7 0.0
21/01:30pm 21.8 18.3 8.7 43 6.9 N 17 22 9 12 1011.9 1011.8 0.0
21/01:00pm 20.6 17.6 11.8 57 4.9 NNW 19 24 10 13 1012.3 1012.2 0.0
21/12:30pm 20.7 16.9 9.9 50 5.8 NNW 20 32 11 17 1012.7 1012.6 0.0
21/12:00pm 21.7 18.2 10.8 50 6.0 NNW 20 26 11 14 1012.8 1012.7 0.0
21/11:30am 21.1 18.0 10.3 50 5.9 NW 17 22 9 12 1012.7 1012.6 0.0
21/11:00am 20.8 17.6 11.4 55 5.2 N 19 33 10 18 1012.8 1012.7 0.0
21/10:30am 19.8 17.0 11.3 58 4.7 NNW 17 24 9 13 1012.9 1012.8 0.0
21/10:00am 19.1 16.5 10.6 58 4.6 NW 15 24 8 13 1012.9 1012.8 0.0
21/09:30am 17.9 15.6 10.5 62 4.0 NW 13 20 7 11 1013.0 1012.9 0.0
21/09:00am 17.5 15.2 10.6 64 3.7 NW 13 22 7 12 1012.9 1012.8 6.0
21/08:30am 17.7 16.0 11.3 66 3.5 NNW 11 19 6 10 1012.8 1012.7 6.0
21/08:00am 16.2 15.3 10.5 69 3.0 N 6 11 3 6 1012.7 1012.6 6.0
21/07:30am 14.1 13.7 9.9 76 2.2 NNW 2 4 1 2 1012.3 1012.2 6.0
21/07:00am 11.7 11.1 8.9 83 1.4 NNW 2 6 1 3 1012.0 1011.9 6.0
21/06:30am 11.4 10.3 8.6 83 1.4 NNW 4 6 2 3 1011.7 1011.6 6.0

Other Formats:

Comma delimited format used in spreadsheet applications
http://www.bom.gov.au/fwo/IDS60801/IDS60801.95806.axf

JavaScript Object Notation format (JSON) in row-major order
http://www.bom.gov.au/fwo/IDS60801/IDS60801.95806.json